Time;durP1;ratioP1;P1;durP2;ratioP2;P2;SDS_P1;SDS_P2;PMS_P1;PMS_P2;Temp;Humidity;BMP_temperature;BMP_pressure;BME280_temperature;BME280_humidity;BME280_pressure;Samples;Min_cycle;Max_cycle;Signal;HPM_P1;HPM_P2
2022/03/26 00:02:07;;;;;;;;;27.00;25.33;;;25.84;98628.53;;;;117762;1188;25680;-56
2022/03/26 00:04:37;;;;;;;;;27.33;22.33;;;25.83;98627.46;;;;117765;1188;24965;-55
2022/03/26 00:07:06;;;;;;;;;26.67;23.33;;;25.81;98621.64;;;;117804;1187;25911;-57
2022/03/26 00:09:36;;;;;;;;;24.00;21.33;;;25.79;98618.58;;;;117844;1188;25185;-56
2022/03/26 00:12:07;;;;;;;;;24.67;21.67;;;25.79;98618.87;;;;117833;1186;24723;-55
2022/03/26 00:14:37;;;;;;;;;23.00;19.00;;;25.77;98615.81;;;;117900;1188;25510;-56
2022/03/26 00:17:07;;;;;;;;;20.67;19.00;;;25.78;98613.79;;;;117821;1187;25874;-55
2022/03/26 00:19:37;;;;;;;;;22.67;20.00;;;25.78;98612.94;;;;117841;1188;25707;-58
2022/03/26 00:22:07;;;;;;;;;19.00;17.67;;;25.79;98615.23;;;;117771;1188;25515;-58
2022/03/26 00:24:37;;;;;;;;;20.00;18.00;;;25.79;98617.61;;;;117737;1188;24874;-57
2022/03/26 00:27:07;;;;;;;;;26.67;21.33;;;25.78;98621.12;;;;117729;1186;25915;-58
2022/03/26 00:29:35;;;;;;;;;23.00;20.00;;;25.77;98621.21;;;;117867;1188;25441;-58
2022/03/26 00:32:04;;;;;;;;;20.00;19.00;;;25.81;98620.30;;;;117826;1186;24795;-57
2022/03/26 00:34:32;;;;;;;;;23.50;20.00;;;25.80;98617.80;;;;117880;1188;25570;-56
2022/03/26 00:36:59;;;;;;;;;23.67;18.67;;;25.81;98618.04;;;;117868;1187;25465;-56
2022/03/26 00:39:27;;;;;;;;;23.33;18.00;;;25.81;98618.50;;;;117796;1188;25699;-58
2022/03/26 00:41:54;;;;;;;;;27.00;23.00;;;25.79;98616.90;;;;117830;1188;25227;-56
2022/03/26 00:44:20;;;;;;;;;26.00;22.00;;;25.76;98618.09;;;;117831;1187;25609;-56
2022/03/26 00:46:49;;;;;;;;;19.00;13.00;;;25.75;98619.16;;;;117431;1189;26012;-55
2022/03/26 00:49:20;;;;;;;;;23.00;16.67;;;25.77;98621.80;;;;117862;1187;25856;-59
2022/03/26 00:51:50;;;;;;;;;22.00;19.67;;;25.80;98622.08;;;;117847;1188;24713;-58
2022/03/26 00:54:18;;;;;;;;;22.00;18.00;;;25.79;98620.35;;;;117842;1188;25699;-58
2022/03/26 00:56:51;;;;;;;;;26.00;22.00;;;25.81;98625.41;;;;117941;1187;25955;-57
2022/03/26 00:59:18;;;;;;;;;23.33;19.00;;;25.84;98628.91;;;;117813;1186;24984;-55
2022/03/26 01:01:47;;;;;;;;;18.67;18.00;;;25.83;98631.50;;;;117821;1188;25219;-58
2022/03/26 01:04:14;;;;;;;;;22.67;19.67;;;25.80;98635.79;;;;117834;1187;24856;-55
2022/03/26 01:06:44;;;;;;;;;25.00;17.33;;;25.80;98632.34;;;;117898;1188;24849;-59
2022/03/26 01:09:11;;;;;;;;;27.00;22.67;;;25.81;98628.98;;;;117821;1188;25139;-57
2022/03/26 01:11:41;;;;;;;;;19.00;16.00;;;25.80;98622.40;;;;117809;1188;25738;-59
2022/03/26 01:14:07;;;;;;;;;17.67;16.33;;;25.78;98622.27;;;;117848;1187;25647;-56
2022/03/26 01:16:36;;;;;;;;;23.00;19.00;;;25.78;98626.14;;;;117841;1186;25696;-60
2022/03/26 01:19:05;;;;;;;;;23.33;18.33;;;25.77;98624.43;;;;117848;1188;25610;-55
2022/03/26 01:21:35;;;;;;;;;19.00;16.00;;;25.78;98628.42;;;;117833;1188;25441;-56
2022/03/26 01:24:01;;;;;;;;;24.00;20.00;;;25.77;98635.44;;;;117849;1188;25133;-56
2022/03/26 01:26:29;;;;;;;;;28.33;24.33;;;25.77;98636.96;;;;117841;1187;25099;-61
2022/03/26 01:28:58;;;;;;;;;22.25;20.25;;;25.76;98643.77;;;;117822;1188;25466;-58
2022/03/26 01:31:28;;;;;;;;;28.00;22.33;;;25.76;98640.51;;;;117836;1187;25681;-59
2022/03/26 01:33:59;;;;;;;;;20.25;18.00;;;25.76;98640.18;;;;117810;1188;24745;-58
2022/03/26 01:36:28;;;;;;;;;17.00;15.67;;;25.78;98642.52;;;;117872;1186;25611;-59
2022/03/26 01:38:55;;;;;;;;;25.33;23.00;;;25.78;98642.89;;;;117856;1187;26118;-56
2022/03/26 01:41:21;;;;;;;;;23.33;20.00;;;25.77;98648.89;;;;117922;1187;24933;-57
2022/03/26 01:43:50;;;;;;;;;23.67;22.00;;;25.77;98649.21;;;;118021;1188;25334;-56
2022/03/26 01:46:19;;;;;;;;;24.67;22.67;;;25.85;98648.39;;;;117500;1189;24909;-56
2022/03/26 01:48:47;;;;;;;;;21.33;18.67;;;25.88;98647.77;;;;117842;1186;25633;-59
2022/03/26 01:51:16;;;;;;;;;28.67;23.00;;;25.89;98650.95;;;;117772;1188;24842;-59
2022/03/26 01:53:51;;;;;;;;;16.00;16.00;;;25.92;98647.98;;;;117836;1187;24970;-57
2022/03/26 01:56:21;;;;;;;;;25.67;23.00;;;25.93;98647.69;;;;117923;1186;25159;-56
2022/03/26 01:58:52;;;;;;;;;25.00;18.00;;;25.95;98651.45;;;;117934;1187;24914;-58
2022/03/26 02:01:21;;;;;;;;;22.00;19.00;;;25.94;98653.36;;;;117909;1187;25504;-59
2022/03/26 02:03:52;;;;;;;;;25.33;21.67;;;25.91;98649.98;;;;117878;1187;25373;-57
2022/03/26 02:06:24;;;;;;;;;27.00;20.67;;;25.89;98651.15;;;;117855;1188;25665;-58
2022/03/26 02:08:50;;;;;;;;;27.50;23.00;;;25.86;98647.01;;;;117465;1187;25797;-59
2022/03/26 02:11:17;;;;;;;;;23.00;19.33;;;25.84;98641.19;;;;117752;1187;25494;-56
2022/03/26 02:13:51;;;;;;;;;24.33;19.67;;;25.82;98639.55;;;;117394;1189;25058;-59
2022/03/26 02:16:22;;;;;;;;;26.00;20.67;;;25.82;98641.20;;;;117387;1189;26245;-57
2022/03/26 02:18:50;;;;;;;;;25.50;22.00;;;25.81;98640.14;;;;117935;1188;25187;-57
2022/03/26 02:21:17;;;;;;;;;25.25;22.75;;;25.84;98641.74;;;;117914;1187;25592;-57
2022/03/26 02:23:45;;;;;;;;;23.00;22.67;;;25.81;98647.14;;;;117844;1187;25532;-59
2022/03/26 02:26:16;;;;;;;;;20.00;17.00;;;25.81;98649.77;;;;117922;1186;24833;-57
2022/03/26 02:28:44;;;;;;;;;22.00;21.67;;;25.81;98646.36;;;;117870;1187;24844;-58
2022/03/26 02:31:14;;;;;;;;;24.00;21.00;;;25.80;98647.85;;;;117867;1187;26245;-57
2022/03/26 02:33:45;;;;;;;;;21.50;21.00;;;25.77;98648.77;;;;117835;1187;25130;-58
2022/03/26 02:36:15;;;;;;;;;27.00;24.67;;;25.78;98649.24;;;;117847;1187;25695;-56
2022/03/26 02:38:43;;;;;;;;;16.00;16.00;;;25.79;98650.69;;;;117893;1186;25047;-58
2022/03/26 02:41:11;;;;;;;;;20.67;20.33;;;25.80;98650.08;;;;117816;1188;25159;-58
2022/03/26 02:43:39;;;;;;;;;26.00;20.00;;;25.77;98645.88;;;;117915;1187;25314;-57
2022/03/26 02:46:06;;;;;;;;;26.00;21.67;;;25.76;98643.58;;;;117894;1186;24883;-59
2022/03/26 02:48:34;;;;;;;;;32.50;24.50;;;25.77;98642.58;;;;117806;1186;25182;-58
2022/03/26 02:51:00;;;;;;;;;19.33;19.33;;;25.73;98642.36;;;;117820;1187;25508;-56
2022/03/26 02:53:27;;;;;;;;;22.00;21.00;;;25.70;98647.64;;;;117827;1188;25248;-59
2022/03/26 02:55:55;;;;;;;;;26.00;21.00;;;25.70;98645.23;;;;117749;1187;25129;-59
2022/03/26 02:58:21;;;;;;;;;21.33;18.33;;;25.68;98645.30;;;;117794;1188;25601;-59
2022/03/26 03:00:48;;;;;;;;;26.33;20.33;;;25.66;98647.60;;;;117858;1188;25496;-55
2022/03/26 03:03:15;;;;;;;;;23.33;17.00;;;25.65;98645.94;;;;117904;1186;25572;-56
2022/03/26 03:05:42;;;;;;;;;23.00;21.33;;;25.66;98646.70;;;;117870;1188;25192;-58
2022/03/26 03:08:08;;;;;;;;;26.67;23.67;;;25.65;98646.05;;;;117851;1186;25373;-57
2022/03/26 03:10:35;;;;;;;;;22.33;19.33;;;25.63;98646.50;;;;117776;1187;26070;-58
2022/03/26 03:13:03;;;;;;;;;19.33;17.67;;;25.62;98641.91;;;;117892;1186;25208;-58
2022/03/26 03:15:29;;;;;;;;;20.33;17.33;;;25.63;98636.44;;;;117852;1187;25923;-59
2022/03/26 03:17:56;;;;;;;;;27.67;24.00;;;25.62;98637.64;;;;117848;1187;25380;-58
2022/03/26 03:20:23;;;;;;;;;22.67;21.00;;;25.60;98637.84;;;;117856;1186;25833;-58
2022/03/26 03:22:49;;;;;;;;;20.67;16.33;;;25.58;98642.56;;;;117830;1188;25391;-57
2022/03/26 03:25:16;;;;;;;;;19.67;17.00;;;25.56;98643.55;;;;117887;1186;24987;-57
2022/03/26 03:27:42;;;;;;;;;18.00;16.00;;;25.57;98641.49;;;;117430;1189;25568;-59
2022/03/26 03:30:11;;;;;;;;;18.33;15.00;;;25.55;98636.90;;;;117746;1187;25649;-59
2022/03/26 03:32:37;;;;;;;;;18.33;16.00;;;25.57;98631.64;;;;117704;1187;24993;-58
2022/03/26 03:35:05;;;;;;;;;23.67;19.33;;;25.58;98632.55;;;;117731;1188;25060;-60
2022/03/26 03:37:38;;;;;;;;;25.67;23.67;;;25.57;98631.56;;;;117740;1187;25235;-57
2022/03/26 03:40:06;;;;;;;;;21.33;19.00;;;25.57;98632.50;;;;117728;1187;25951;-58
2022/03/26 03:42:33;;;;;;;;;20.33;16.67;;;25.56;98633.34;;;;117796;1187;25271;-60
2022/03/26 03:45:00;;;;;;;;;25.00;20.00;;;25.55;98636.16;;;;117902;1188;25696;-57
2022/03/26 03:47:29;;;;;;;;;20.00;19.00;;;25.54;98629.42;;;;117878;1186;24746;-57
2022/03/26 03:49:57;;;;;;;;;23.33;19.67;;;25.54;98624.52;;;;117843;1187;24696;-57
2022/03/26 03:52:24;;;;;;;;;20.33;20.00;;;25.54;98624.65;;;;117814;1187;25094;-57
2022/03/26 03:54:50;;;;;;;;;27.00;19.50;;;25.52;98625.19;;;;117770;1187;25195;-59
2022/03/26 03:57:17;;;;;;;;;20.00;17.33;;;25.51;98625.54;;;;117843;1186;24858;-58
2022/03/26 03:59:43;;;;;;;;;25.00;17.67;;;25.49;98624.59;;;;117901;1187;25785;-59
2022/03/26 04:02:11;;;;;;;;;28.33;21.33;;;25.48;98623.46;;;;117913;1188;26613;-58
2022/03/26 04:04:38;;;;;;;;;20.67;17.67;;;25.52;98620.70;;;;117805;1188;25758;-56
2022/03/26 04:07:07;;;;;;;;;23.00;20.00;;;25.53;98618.55;;;;117851;1188;26380;-59
2022/03/26 04:09:35;;;;;;;;;24.67;20.67;;;25.52;98623.61;;;;117846;1187;25511;-58
2022/03/26 04:12:04;;;;;;;;;20.50;20.00;;;25.53;98625.73;;;;117811;1186;25011;-57
2022/03/26 04:14:31;;;;;;;;;27.00;20.67;;;25.51;98626.76;;;;117845;1187;26290;-58
2022/03/26 04:16:58;;;;;;;;;28.67;21.00;;;25.49;98628.09;;;;117908;1187;24988;-59
2022/03/26 04:19:28;;;;;;;;;27.00;22.50;;;25.49;98638.38;;;;117810;1187;24976;-55
2022/03/26 04:21:56;;;;;;;;;25.00;21.00;;;25.47;98642.28;;;;117844;1188;25646;-56
2022/03/26 04:24:23;;;;;;;;;22.00;20.00;;;25.47;98644.72;;;;117859;1188;25209;-57
2022/03/26 04:26:52;;;;;;;;;23.00;20.00;;;25.47;98646.75;;;;117921;1186;25203;-59
2022/03/26 04:29:21;;;;;;;;;17.67;17.33;;;25.48;98644.05;;;;117805;1187;25590;-62
2022/03/26 04:31:47;;;;;;;;;25.00;21.50;;;25.46;98648.30;;;;117800;1188;25159;-59
2022/03/26 04:34:14;;;;;;;;;19.67;18.67;;;25.44;98650.71;;;;117803;1186;25388;-58
2022/03/26 04:36:41;;;;;;;;;26.67;20.33;;;25.42;98654.95;;;;117743;1188;25699;-59
2022/03/26 04:39:09;;;;;;;;;30.67;22.00;;;25.41;98662.41;;;;117953;1186;25598;-55
2022/03/26 04:41:35;;;;;;;;;23.67;21.67;;;25.49;98659.44;;;;117756;1188;25701;-57
2022/03/26 04:44:03;;;;;;;;;24.67;22.67;;;25.47;98655.30;;;;117841;1186;25658;-56
2022/03/26 04:46:33;;;;;;;;;23.33;20.00;;;25.46;98654.98;;;;117775;1188;25156;-59
2022/03/26 04:49:00;;;;;;;;;25.33;14.67;;;25.44;98653.64;;;;117838;1188;24887;-57
2022/03/26 04:51:27;;;;;;;;;20.33;18.33;;;25.45;98657.20;;;;117800;1186;24820;-57
2022/03/26 04:53:53;;;;;;;;;19.75;17.75;;;25.42;98658.70;;;;117821;1186;25602;-60
2022/03/26 04:56:20;;;;;;;;;20.33;15.33;;;25.43;98666.94;;;;117810;1187;25550;-58
2022/03/26 04:58:48;;;;;;;;;20.67;18.33;;;25.41;98666.99;;;;117860;1187;26149;-56
2022/03/26 05:01:15;;;;;;;;;23.33;16.67;;;25.41;98663.91;;;;117869;1186;25326;-57
2022/03/26 05:03:42;;;;;;;;;19.00;17.33;;;25.45;98662.60;;;;117872;1187;25368;-57
2022/03/26 05:06:09;;;;;;;;;24.33;21.33;;;25.45;98666.64;;;;117861;1188;25787;-57
2022/03/26 05:08:35;;;;;;;;;19.67;18.00;;;25.42;98669.90;;;;117709;1188;25073;-58
2022/03/26 05:11:04;;;;;;;;;23.00;20.33;;;25.43;98667.44;;;;117829;1188;24800;-56
2022/03/26 05:13:32;;;;;;;;;32.33;28.00;;;25.43;98667.46;;;;117772;1186;24812;-59
2022/03/26 05:16:02;;;;;;;;;28.67;22.00;;;25.42;98666.74;;;;117466;1189;25112;-58
2022/03/26 05:18:31;;;;;;;;;26.50;23.50;;;25.45;98671.05;;;;117765;1187;25813;-59
2022/03/26 05:20:58;;;;;;;;;17.00;17.00;;;25.47;98674.13;;;;117410;1189;25598;-57
2022/03/26 05:23:25;;;;;;;;;25.50;21.50;;;25.44;98675.48;;;;117778;1187;25131;-56
2022/03/26 05:25:52;;;;;;;;;16.50;15.50;;;25.42;98685.59;;;;117826;1186;25195;-58
2022/03/26 05:28:18;;;;;;;;;24.67;21.33;;;25.44;98680.08;;;;117603;1188;26887;-57
2022/03/26 05:30:49;;;;;;;;;27.00;22.00;;;25.45;98681.96;;;;117813;1186;25532;-58
2022/03/26 05:33:16;;;;;;;;;25.33;21.33;;;25.45;98684.16;;;;117757;1187;25188;-58
2022/03/26 05:35:43;;;;;;;;;23.33;20.00;;;25.45;98688.91;;;;117886;1188;25271;-59
2022/03/26 05:38:10;;;;;;;;;19.67;18.33;;;25.45;98690.30;;;;117799;1188;25553;-59
2022/03/26 05:40:37;;;;;;;;;18.00;15.00;;;25.49;98691.04;;;;117790;1188;25598;-57
2022/03/26 05:43:04;;;;;;;;;14.67;14.00;;;25.47;98697.66;;;;117750;1187;25606;-57
2022/03/26 05:45:30;;;;;;;;;24.00;22.50;;;25.46;98699.74;;;;117847;1186;24869;-59
2022/03/26 05:47:59;;;;;;;;;11.33;7.00;;;25.49;98700.42;;;;117970;1187;25379;-62
2022/03/26 05:50:26;;;;;;;;;22.50;19.00;;;25.56;98699.27;;;;117662;1188;25264;-61
2022/03/26 05:52:52;;;;;;;;;20.00;20.00;;;25.54;98694.30;;;;117830;1186;24741;-59
2022/03/26 05:55:19;;;;;;;;;22.00;21.00;;;25.51;98690.91;;;;117789;1188;25059;-59
2022/03/26 05:57:46;;;;;;;;;26.33;22.33;;;25.53;98689.61;;;;117833;1188;24857;-60
2022/03/26 06:00:14;;;;;;;;;25.00;19.00;;;25.55;98691.09;;;;117935;1187;25163;-61
2022/03/26 06:02:42;;;;;;;;;26.67;20.67;;;25.55;98692.38;;;;117947;1188;25101;-61
2022/03/26 06:05:08;;;;;;;;;16.00;15.33;;;25.63;98693.02;;;;117531;1188;25182;-60
2022/03/26 06:07:36;;;;;;;;;22.33;19.67;;;25.69;98693.41;;;;117848;1186;25000;-67
2022/03/26 06:10:03;;;;;;;;;23.50;20.00;;;25.67;98692.58;;;;117846;1186;25651;-69
2022/03/26 06:12:30;;;;;;;;;23.33;17.67;;;25.62;98693.30;;;;117823;1186;24799;-65
2022/03/26 06:14:58;;;;;;;;;19.00;17.33;;;25.59;98697.11;;;;117797;1188;24759;-64
2022/03/26 06:17:25;;;;;;;;;19.33;17.00;;;25.64;98702.18;;;;117885;1187;25471;-62
2022/03/26 06:19:51;;;;;;;;;14.00;12.50;;;25.66;98700.19;;;;117397;1188;25646;-63
2022/03/26 06:22:18;;;;;;;;;20.00;17.00;;;25.67;98699.79;;;;117845;1187;25504;-64
2022/03/26 06:24:45;;;;;;;;;19.67;17.00;;;25.70;98703.67;;;;117825;1188;25645;-62
2022/03/26 06:27:11;;;;;;;;;16.33;16.33;;;25.70;98704.64;;;;117818;1188;24763;-62
2022/03/26 06:29:38;;;;;;;;;18.50;16.00;;;25.69;98706.11;;;;117833;1187;25754;-63
2022/03/26 06:32:05;;;;;;;;;18.33;16.33;;;25.71;98707.16;;;;117458;1189;25485;-65
2022/03/26 06:34:31;;;;;;;;;16.33;13.00;;;25.74;98708.91;;;;117871;1187;25669;-64
2022/03/26 06:36:58;;;;;;;;;24.00;21.67;;;25.79;98712.27;;;;117782;1188;26192;-63
2022/03/26 06:39:24;;;;;;;;;16.33;15.00;;;25.81;98711.67;;;;117752;1188;24754;-63
2022/03/26 06:41:51;;;;;;;;;23.00;19.00;;;25.82;98712.02;;;;117841;1186;25425;-62
2022/03/26 06:44:20;;;;;;;;;22.00;19.00;;;25.82;98716.65;;;;117844;1188;26506;-62
2022/03/26 06:46:47;;;;;;;;;16.67;14.67;;;25.87;98722.21;;;;117797;1187;25285;-63
2022/03/26 06:49:14;;;;;;;;;11.50;10.00;;;25.88;98722.21;;;;117832;1187;25397;-64
2022/03/26 06:51:40;;;;;;;;;7.33;7.33;;;25.91;98722.71;;;;117876;1188;25113;-61
2022/03/26 06:54:07;;;;;;;;;18.00;16.00;;;25.95;98724.68;;;;117843;1187;25762;-62
2022/03/26 06:56:34;;;;;;;;;22.67;17.33;;;25.95;98725.80;;;;117941;1187;25156;-64
2022/03/26 06:59:01;;;;;;;;;21.67;20.67;;;25.99;98725.08;;;;117915;1186;24849;-59
2022/03/26 07:01:31;;;;;;;;;25.00;21.00;;;26.01;98727.41;;;;117979;1186;25008;-60
2022/03/26 07:03:59;;;;;;;;;28.50;26.50;;;26.07;98728.89;;;;118014;1188;24801;-55
2022/03/26 07:06:27;;;;;;;;;31.67;28.33;;;26.14;98731.45;;;;117799;1186;25298;-53
2022/03/26 07:08:54;;;;;;;;;23.00;22.00;;;26.11;98732.71;;;;117816;1187;25531;-55
2022/03/26 07:11:21;;;;;;;;;26.00;23.67;;;26.08;98737.13;;;;117805;1187;25616;-55
2022/03/26 07:13:48;;;;;;;;;26.00;25.00;;;26.06;98737.98;;;;117823;1188;25211;-55
2022/03/26 07:16:16;;;;;;;;;33.00;26.00;;;26.05;98741.75;;;;117788;1187;26858;-56
2022/03/26 07:18:42;;;;;;;;;45.00;36.00;;;26.02;98742.14;;;;117399;1188;25657;-56
2022/03/26 07:21:09;;;;;;;;;49.33;39.00;;;26.01;98742.17;;;;117952;1187;25238;-54
2022/03/26 07:23:36;;;;;;;;;45.67;36.00;;;26.04;98739.38;;;;117852;1187;25555;-55
2022/03/26 07:26:03;;;;;;;;;53.00;40.33;;;26.01;98736.44;;;;117924;1187;25647;-55
2022/03/26 07:28:32;;;;;;;;;52.00;39.33;;;26.00;98732.24;;;;117768;1186;25115;-55
2022/03/26 07:30:59;;;;;;;;;53.67;41.67;;;25.96;98730.80;;;;117845;1186;25646;-55
2022/03/26 07:33:26;;;;;;;;;52.00;40.00;;;25.94;98727.96;;;;117809;1187;24935;-56
2022/03/26 07:35:53;;;;;;;;;52.00;38.00;;;25.92;98728.77;;;;117787;1186;25045;-54
2022/03/26 07:38:20;;;;;;;;;46.67;39.00;;;25.88;98728.85;;;;117840;1187;25398;-54
2022/03/26 07:40:47;;;;;;;;;51.33;40.00;;;25.87;98726.39;;;;117806;1186;25592;-53
2022/03/26 07:43:13;;;;;;;;;47.00;37.50;;;25.87;98725.21;;;;117327;1188;25132;-53
2022/03/26 07:45:45;;;;;;;;;54.00;41.50;;;25.84;98726.59;;;;117822;1187;25546;-53
2022/03/26 07:48:11;;;;;;;;;53.33;41.00;;;25.83;98726.04;;;;117871;1187;25512;-54
2022/03/26 07:50:41;;;;;;;;;52.50;41.00;;;25.88;98723.17;;;;117884;1187;24856;-52
2022/03/26 07:53:10;;;;;;;;;77.25;60.75;;;25.85;98723.23;;;;117874;1188;25064;-53
2022/03/26 07:55:39;;;;;;;;;64.25;49.00;;;25.77;98720.29;;;;117811;1186;25254;-55
2022/03/26 07:58:08;;;;;;;;;58.33;47.00;;;25.62;98721.15;;;;117912;1186;25463;-55
2022/03/26 08:00:37;;;;;;;;;55.67;45.33;;;25.58;98715.61;;;;117818;1187;25107;-55
2022/03/26 08:03:08;;;;;;;;;50.50;42.00;;;25.48;98715.25;;;;117803;1187;25402;-56
2022/03/26 08:05:35;;;;;;;;;54.50;42.00;;;25.36;98718.73;;;;117952;1188;25283;-56
2022/03/26 08:08:01;;;;;;;;;55.00;45.00;;;25.31;98719.50;;;;117312;1189;25607;-55
2022/03/26 08:10:28;;;;;;;;;54.00;41.00;;;25.20;98717.01;;;;117699;1187;25265;-56
2022/03/26 08:12:54;;;;;;;;;54.00;43.00;;;25.19;98711.35;;;;117932;1187;25386;-54
2022/03/26 08:15:21;;;;;;;;;59.00;42.67;;;25.25;98713.36;;;;117898;1188;25676;-57
2022/03/26 08:17:47;;;;;;;;;55.67;43.33;;;25.15;98710.85;;;;117810;1188;25387;-56
2022/03/26 08:20:14;;;;;;;;;60.00;44.33;;;25.05;98711.78;;;;117786;1187;25619;-55
2022/03/26 08:22:41;;;;;;;;;57.50;44.00;;;24.91;98710.31;;;;117781;1188;24715;-57
2022/03/26 08:26:19;;;;;;;;;51.00;39.00;;;24.84;98712.98;;;;117820;1187;25220;-54
2022/03/26 08:28:04;;;;;;;;;57.00;44.00;;;24.86;98712.20;;;;117807;1188;24857;-54
2022/03/26 08:30:31;;;;;;;;;51.67;38.67;;;24.82;98713.76;;;;117819;1187;25122;-55
2022/03/26 08:33:00;;;;;;;;;51.67;40.33;;;24.77;98715.23;;;;117836;1187;25634;-56
2022/03/26 08:35:38;;;;;;;;;51.00;40.33;;;24.67;98713.93;;;;117810;1188;25344;-54
2022/03/26 08:38:06;;;;;;;;;48.00;39.33;;;24.66;98714.37;;;;117832;1188;24756;-57
2022/03/26 08:40:33;;;;;;;;;48.00;37.00;;;24.64;98710.40;;;;117867;1186;25490;-54
2022/03/26 08:43:00;;;;;;;;;50.33;40.00;;;24.60;98710.53;;;;117836;1187;24772;-55
2022/03/26 08:45:28;;;;;;;;;48.00;37.00;;;24.53;98706.87;;;;117817;1186;24778;-54
2022/03/26 08:47:55;;;;;;;;;47.33;36.33;;;24.49;98704.53;;;;117669;1188;25256;-52
2022/03/26 08:50:23;;;;;;;;;47.33;37.00;;;24.45;98703.77;;;;117346;1190;25612;-50
2022/03/26 08:52:50;;;;;;;;;45.67;37.67;;;24.39;98699.27;;;;117592;1188;25427;-53
2022/03/26 08:55:17;;;;;;;;;51.00;38.33;;;24.36;98696.94;;;;117588;1188;25274;-53
2022/03/26 08:57:44;;;;;;;;;43.67;35.33;;;24.35;98693.68;;;;117565;1187;25972;-50
2022/03/26 09:00:13;;;;;;;;;48.00;37.00;;;24.30;98688.23;;;;117704;1188;24896;-54
2022/03/26 09:02:40;;;;;;;;;50.00;39.33;;;24.34;98686.63;;;;117662;1187;25414;-51
2022/03/26 09:05:08;;;;;;;;;44.67;33.67;;;24.31;98682.81;;;;117650;1188;25624;-51
2022/03/26 09:07:35;;;;;;;;;46.33;37.00;;;24.27;98678.77;;;;117627;1186;25418;-53
2022/03/26 09:10:04;;;;;;;;;45.33;36.33;;;24.27;98675.52;;;;117642;1188;25649;-50
2022/03/26 09:12:30;;;;;;;;;40.00;31.67;;;24.26;98675.30;;;;117359;1188;25751;-50
2022/03/26 09:14:57;;;;;;;;;39.67;35.33;;;24.24;98671.90;;;;117591;1188;25258;-51
2022/03/26 09:17:23;;;;;;;;;46.33;36.33;;;24.22;98668.09;;;;117615;1189;25428;-53
2022/03/26 09:19:50;;;;;;;;;44.00;35.00;;;24.17;98666.43;;;;117355;1190;25000;-50
2022/03/26 09:22:17;;;;;;;;;43.00;33.50;;;24.13;98665.62;;;;117597;1187;24833;-51
2022/03/26 09:24:43;;;;;;;;;45.00;35.00;;;24.13;98663.58;;;;117656;1187;24765;-49
2022/03/26 09:27:10;;;;;;;;;42.00;32.67;;;24.11;98656.33;;;;117411;1189;25808;-52
2022/03/26 09:29:37;;;;;;;;;42.00;36.00;;;24.12;98652.46;;;;117607;1188;24992;-50
2022/03/26 09:32:04;;;;;;;;;46.67;35.00;;;24.08;98650.95;;;;117425;1189;25064;-51
2022/03/26 09:34:31;;;;;;;;;43.00;34.00;;;24.09;98646.60;;;;117653;1187;25248;-53
2022/03/26 09:36:57;;;;;;;;;42.00;35.00;;;24.09;98641.89;;;;117348;1190;25222;-52
2022/03/26 09:39:24;;;;;;;;;41.67;35.33;;;24.08;98639.29;;;;117573;1187;25300;-52
2022/03/26 09:41:51;;;;;;;;;39.00;31.33;;;24.07;98637.21;;;;117684;1189;24717;-53
2022/03/26 09:44:18;;;;;;;;;39.00;35.00;;;24.06;98636.91;;;;117366;1189;24832;-49
2022/03/26 09:46:45;;;;;;;;;46.67;35.33;;;24.04;98636.63;;;;117724;1187;25454;-52
2022/03/26 09:49:12;;;;;;;;;40.33;29.67;;;24.03;98633.20;;;;117708;1187;24828;-49
2022/03/26 09:51:38;;;;;;;;;44.33;36.67;;;24.03;98629.45;;;;117733;1188;25602;-54
2022/03/26 09:54:05;;;;;;;;;44.50;34.00;;;24.04;98628.81;;;;117383;1188;25156;-50
2022/03/26 09:56:32;;;;;;;;;31.00;29.67;;;24.05;98627.23;;;;117691;1186;25288;-53
2022/03/26 09:58:59;;;;;;;;;40.67;31.67;;;24.06;98623.77;;;;117742;1188;25271;-51
2022/03/26 10:01:26;;;;;;;;;35.67;32.33;;;24.06;98624.38;;;;117688;1186;25572;-51
2022/03/26 10:04:15;;;;;;;;;39.33;30.67;;;24.04;98618.05;;;;117702;1186;25552;-50
2022/03/26 10:06:53;;;;;;;;;30.67;27.33;;;24.09;98613.98;;;;117690;1187;25423;-49
2022/03/26 10:09:47;;;;;;;;;31.33;26.33;;;24.09;98611.63;;;;117724;1188;25423;-52
2022/03/26 10:12:19;;;;;;;;;34.00;28.50;;;24.18;98603.60;;;;117345;1190;25331;-52
2022/03/26 10:14:53;;;;;;;;;26.67;20.67;;;24.19;98599.36;;;;117700;1188;25091;-52
2022/03/26 10:17:30;;;;;;;;;30.33;27.67;;;24.19;98594.41;;;;117670;1187;25611;-54
2022/03/26 10:20:06;;;;;;;;;33.50;26.00;;;24.20;98591.59;;;;117641;1188;26347;-49
2022/03/26 10:22:38;;;;;;;;;35.00;31.50;;;24.23;98587.59;;;;117711;1189;25060;-48
2022/03/26 10:25:12;;;;;;;;;35.67;28.67;;;24.24;98583.66;;;;117677;1189;25653;-49
2022/03/26 10:27:56;;;;;;;;;33.50;29.50;;;24.27;98577.48;;;;117649;1187;25044;-53
2022/03/26 10:33:20;;;;;;;;;33.00;28.00;;;24.36;98569.16;;;;117691;1187;24995;-50
2022/03/26 10:35:58;;;;;;;;;33.33;30.33;;;24.33;98565.91;;;;117702;1187;25516;-51
2022/03/26 10:38:32;;;;;;;;;27.33;26.67;;;24.33;98564.86;;;;117611;1187;25112;-50
2022/03/26 10:41:07;;;;;;;;;27.67;26.33;;;24.35;98557.48;;;;117641;1187;24954;-53
2022/03/26 10:43:39;;;;;;;;;35.00;31.00;;;24.36;98553.16;;;;117663;1188;25674;-52
2022/03/26 10:46:06;;;;;;;;;35.00;29.33;;;24.36;98553.79;;;;117754;1187;25486;-53
2022/03/26 10:48:35;;;;;;;;;38.00;31.00;;;24.37;98551.56;;;;117812;1188;24749;-54
2022/03/26 10:51:10;;;;;;;;;25.00;24.00;;;24.38;98541.90;;;;117796;1187;24811;-54
2022/03/26 10:53:39;;;;;;;;;35.00;30.00;;;24.42;98538.88;;;;117794;1186;24739;-51
2022/03/26 10:56:08;;;;;;;;;39.00;27.33;;;24.42;98535.15;;;;117792;1188;24877;-54
2022/03/26 10:58:35;;;;;;;;;26.67;26.67;;;24.44;98533.45;;;;117775;1187;25758;-53
2022/03/26 11:01:03;;;;;;;;;30.33;26.67;;;24.46;98530.58;;;;117728;1186;25155;-53
2022/03/26 11:03:31;;;;;;;;;29.00;24.67;;;24.48;98525.27;;;;117780;1187;25680;-53
2022/03/26 11:05:58;;;;;;;;;27.67;25.33;;;24.48;98518.77;;;;117790;1189;25514;-53
2022/03/26 11:08:29;;;;;;;;;27.00;23.33;;;24.49;98516.20;;;;117727;1188;25508;-52
2022/03/26 11:10:56;;;;;;;;;30.67;28.00;;;24.51;98512.65;;;;117747;1187;25174;-54
2022/03/26 11:13:24;;;;;;;;;35.50;28.00;;;24.52;98506.45;;;;117360;1189;25573;-53
2022/03/26 11:16:04;;;;;;;;;27.67;23.67;;;24.51;98498.65;;;;117352;1189;25120;-50
2022/03/26 11:18:31;;;;;;;;;36.00;29.00;;;24.57;98492.76;;;;117705;1187;25036;-51
2022/03/26 11:21:21;;;;;;;;;34.33;27.67;;;24.57;98489.68;;;;117666;1188;24984;-52
2022/03/26 11:24:26;;;;;;;;;26.33;21.67;;;24.66;98485.19;;;;117694;1186;25673;-56
2022/03/26 11:27:17;;;;;;;;;33.33;26.67;;;24.68;98484.13;;;;117342;1190;24795;-52
2022/03/26 11:29:47;;;;;;;;;28.67;23.33;;;24.68;98479.30;;;;117363;1188;24966;-51
2022/03/26 11:32:25;;;;;;;;;28.00;22.00;;;24.69;98468.83;;;;117361;1190;25334;-55
2022/03/26 11:35:03;;;;;;;;;20.67;17.67;;;24.69;98462.53;;;;117703;1187;24932;-54
2022/03/26 11:37:30;;;;;;;;;19.00;16.33;;;24.65;98461.77;;;;117769;1186;25005;-51
2022/03/26 11:39:56;;;;;;;;;17.00;15.67;;;24.59;98460.48;;;;117381;1188;25093;-51
2022/03/26 11:42:43;;;;;;;;;21.33;17.33;;;24.43;98454.28;;;;117735;1188;25191;-51
2022/03/26 11:51:19;;;;;;;;;16.33;12.33;;;24.47;98444.58;;;;117673;1187;25451;-51
2022/03/26 11:53:49;;;;;;;;;15.00;12.33;;;24.47;98431.24;;;;117645;1186;25098;-52
2022/03/26 11:56:30;;;;;;;;;17.00;15.00;;;24.44;98425.91;;;;117561;1187;25380;-53
2022/03/26 11:59:16;;;;;;;;;12.33;10.67;;;24.51;98414.48;;;;117568;1188;25372;-56
2022/03/26 12:01:44;;;;;;;;;18.50;15.50;;;24.51;98414.56;;;;117597;1186;26196;-57
2022/03/26 12:04:19;;;;;;;;;18.33;13.33;;;24.53;98410.64;;;;117621;1188;24730;-51
2022/03/26 12:06:50;;;;;;;;;19.67;12.67;;;24.47;98408.46;;;;117406;1190;26282;-53
2022/03/26 12:09:32;;;;;;;;;19.00;16.00;;;24.58;98403.31;;;;117637;1186;25186;-53